createdAt,value
2023-05-14T00:28:41.044Z,11.1
2023-05-14T00:58:02.557Z,10.8
2023-05-14T01:27:22.877Z,10.8
2023-05-14T01:56:45.753Z,10.9
2023-05-14T02:26:07.245Z,10.9
2023-05-14T02:55:27.844Z,11.1
2023-05-14T03:24:48.655Z,10.9
2023-05-14T03:54:05.580Z,10.9
2023-05-14T04:23:15.697Z,10.9
2023-05-14T04:52:34.147Z,11.1
2023-05-14T05:21:59.443Z,11.4
2023-05-14T05:51:21.896Z,11.7
2023-05-14T06:20:40.588Z,12.1
2023-05-14T06:49:59.091Z,12.6
2023-05-14T07:19:20.157Z,13.5
2023-05-14T07:48:38.434Z,14.5
2023-05-14T08:17:55.128Z,15.5
2023-05-14T08:47:03.394Z,16
2023-05-14T09:16:26.273Z,17
2023-05-14T09:45:45.570Z,18.2
2023-05-14T10:15:13.682Z,19.4
2023-05-14T10:44:41.520Z,20.2
2023-05-14T11:14:05.350Z,20.6
2023-05-14T11:43:34.238Z,21.8
2023-05-14T12:12:56.758Z,22.2
2023-05-14T12:42:15.792Z,23.1
2023-05-14T13:11:40.594Z,22.6
2023-05-14T13:41:00.234Z,23
2023-05-14T14:10:10.775Z,25.8
2023-05-14T14:39:45.953Z,25.7
2023-05-14T15:09:10.633Z,25.3
2023-05-14T15:38:30.694Z,25.8
2023-05-14T16:07:55.441Z,24.7
2023-05-14T16:37:20.519Z,26.6
2023-05-14T17:06:45.093Z,24.7
2023-05-14T17:35:58.221Z,21.2
2023-05-14T18:05:21.001Z,19.8
2023-05-14T18:34:11.015Z,18.7
2023-05-14T19:03:28.161Z,17.9
2023-05-14T19:32:33.026Z,17.1
2023-05-14T20:01:46.582Z,16.5
2023-05-14T20:31:07.343Z,15.9
2023-05-14T21:00:19.542Z,15.5
2023-05-14T21:29:40.287Z,14.6
2023-05-14T21:58:52.520Z,14.1
2023-05-14T22:28:11.156Z,13.6
2023-05-14T22:57:26.706Z,13.6
2023-05-14T23:26:46.691Z,13.4
2023-05-14T23:56:03.945Z,13
